Impacts METAR Board INFO
IDs:

KSLC - Salt Lake City Intl, UT, US

Updated at: 1006 UTC 19 Nov 2017
Potential Impact None Slight Moderate High
Time18/22Z 18/23Z 19/00Z 19/01Z 19/02Z 19/03Z 19/04Z 19/05Z 19/06Z 19/07Z 19/08Z 19/09Z 19/10Z
VIS10 10 10 10 10 10 10 10 10 10 10 10 10
CIG250 250 250 250 -- -- -- -- -- -- 200 200 200
CoverBKNBKNBKNBKNCLRFEWFEWFEWSCTSCTBKNBKNBKN
FltCatVFRVFRVFRVFRVFRVFRVFRVFRVFRVFRVFRVFRVFR
WX--------------------------
WDir18035035035035001802101702300120150
WSpd4 5 6 6 3 0 3 3 6 5 0 4 6
WGst-- -- -- -- -- -- -- -- -- -- -- -- --
Raw hourly METARs
KSLC 182154Z 18004KT 10SM FEW046 FEW210 BKN250 06/M07 A3040 RMK AO2 SLP298 T00611072 VISNO NW RNWY $
KSLC 182254Z 35005KT 10SM FEW210 BKN250 07/M06 A3039 RMK AO2 SLP295 T00671061 VISNO NW RNWY $
KSLC 182354Z COR 35006KT 10SM FEW210 BKN250 04/M04 A3037 RMK AO2 SLP285 T00441039 10072 20033 58010 $
KSLC 190054Z 35006KT 10SM SCT190 BKN250 02/M03 A3037 RMK AO2 SLP295 T00221028 $
KSLC 190154Z 35003KT 10SM CLR 03/M03 A3037 RMK AO2 SLP295 T00281033 $
KSLC 190254Z 00000KT 10SM FEW200 01/M03 A3037 RMK AO2 SLP297 T00111033 56002 $
KSLC 190354Z 18003KT 10SM FEW200 01/M03 A3036 RMK AO2 SLP291 T00111033 VISNO NW RNWY $
KSLC 190454Z 21003KT 10SM FEW200 01/M03 A3035 RMK AO2 SLP287 T00061033 $
KSLC 190554Z 17006KT 10SM SCT200 00/M04 A3034 RMK AO2 SLP285 T00001044 10044 20000 56007 $
KSLC 190654Z 23005KT 10SM SCT200 M01/M04 A3034 RMK AO2 SLP272 T10061039 400721011 $
KSLC 190754Z 00000KT 10SM BKN200 00/M04 A3034 RMK AO2 SLP279 T00001044 $
KSLC 190854Z 12004KT 10SM BKN200 00/M04 A3033 RMK AO2 SLP276 T00001044 58004 VISNO NW RNWY $
KSLC 190954Z 15006KT 10SM BKN200 M01/M04 A3032 RMK AO2 SLP273 T10061044 VISNO NW RNWY $